sensor_id;sensor_type;location;lat;lon;timestamp;P1;durP1;ratioP1;P2;durP2;ratioP2
18206;SDS011;9229;52.354;20.886;2022-12-18T00:03:49;29.20;;;12.93;;
18206;SDS011;9229;52.354;20.886;2022-12-18T00:08:57;26.63;;;13.40;;
18206;SDS011;9229;52.354;20.886;2022-12-18T00:14:02;38.63;;;12.43;;
18206;SDS011;9229;52.354;20.886;2022-12-18T00:19:06;20.85;;;11.60;;
18206;SDS011;9229;52.354;20.886;2022-12-18T00:24:12;34.25;;;15.90;;
18206;SDS011;9229;52.354;20.886;2022-12-18T00:29:16;27.30;;;13.43;;
18206;SDS011;9229;52.354;20.886;2022-12-18T00:34:21;29.60;;;13.27;;
18206;SDS011;9229;52.354;20.886;2022-12-18T00:39:30;30.42;;;13.93;;
18206;SDS011;9229;52.354;20.886;2022-12-18T00:44:39;30.58;;;12.80;;
18206;SDS011;9229;52.354;20.886;2022-12-18T00:49:41;27.55;;;12.82;;
18206;SDS011;9229;52.354;20.886;2022-12-18T00:54:46;26.45;;;11.98;;
18206;SDS011;9229;52.354;20.886;2022-12-18T00:59:51;30.95;;;12.45;;
18206;SDS011;9229;52.354;20.886;2022-12-18T01:04:54;26.13;;;12.15;;
18206;SDS011;9229;52.354;20.886;2022-12-18T01:10:10;24.75;;;10.23;;
18206;SDS011;9229;52.354;20.886;2022-12-18T01:15:16;17.83;;;9.88;;
18206;SDS011;9229;52.354;20.886;2022-12-18T01:20:22;22.10;;;10.85;;
18206;SDS011;9229;52.354;20.886;2022-12-18T01:25:31;21.95;;;11.82;;
18206;SDS011;9229;52.354;20.886;2022-12-18T01:30:34;25.88;;;10.73;;
18206;SDS011;9229;52.354;20.886;2022-12-18T01:35:39;18.70;;;9.60;;
18206;SDS011;9229;52.354;20.886;2022-12-18T01:41:00;29.10;;;10.25;;
18206;SDS011;9229;52.354;20.886;2022-12-18T01:46:07;20.10;;;9.57;;
18206;SDS011;9229;52.354;20.886;2022-12-18T01:51:13;26.92;;;11.02;;
18206;SDS011;9229;52.354;20.886;2022-12-18T01:56:17;21.02;;;9.73;;
18206;SDS011;9229;52.354;20.886;2022-12-18T02:01:25;16.73;;;9.30;;
18206;SDS011;9229;52.354;20.886;2022-12-18T02:06:27;21.90;;;10.45;;
18206;SDS011;9229;52.354;20.886;2022-12-18T02:11:41;24.60;;;10.20;;
18206;SDS011;9229;52.354;20.886;2022-12-18T02:16:57;27.92;;;10.65;;
18206;SDS011;9229;52.354;20.886;2022-12-18T02:22:11;18.02;;;9.68;;
18206;SDS011;9229;52.354;20.886;2022-12-18T02:27:27;28.80;;;11.07;;
18206;SDS011;9229;52.354;20.886;2022-12-18T02:32:36;21.65;;;9.63;;
18206;SDS011;9229;52.354;20.886;2022-12-18T02:37:42;24.13;;;9.50;;
18206;SDS011;9229;52.354;20.886;2022-12-18T02:43:06;30.88;;;9.30;;
18206;SDS011;9229;52.354;20.886;2022-12-18T02:48:09;21.67;;;8.80;;
18206;SDS011;9229;52.354;20.886;2022-12-18T02:53:15;24.65;;;10.55;;
18206;SDS011;9229;52.354;20.886;2022-12-18T02:58:28;17.33;;;8.77;;
18206;SDS011;9229;52.354;20.886;2022-12-18T03:03:47;16.05;;;9.25;;
18206;SDS011;9229;52.354;20.886;2022-12-18T03:08:54;18.48;;;8.48;;
18206;SDS011;9229;52.354;20.886;2022-12-18T03:14:11;15.23;;;9.00;;
18206;SDS011;9229;52.354;20.886;2022-12-18T03:19:21;21.75;;;9.57;;
18206;SDS011;9229;52.354;20.886;2022-12-18T03:24:33;16.95;;;8.68;;
18206;SDS011;9229;52.354;20.886;2022-12-18T03:29:49;16.52;;;9.00;;
18206;SDS011;9229;52.354;20.886;2022-12-18T03:35:03;19.08;;;8.52;;
18206;SDS011;9229;52.354;20.886;2022-12-18T03:40:10;15.02;;;7.75;;
18206;SDS011;9229;52.354;20.886;2022-12-18T03:45:19;19.27;;;7.70;;
18206;SDS011;9229;52.354;20.886;2022-12-18T03:50:30;19.27;;;9.98;;
18206;SDS011;9229;52.354;20.886;2022-12-18T03:55:41;17.70;;;9.55;;
18206;SDS011;9229;52.354;20.886;2022-12-18T04:00:52;16.67;;;8.80;;
18206;SDS011;9229;52.354;20.886;2022-12-18T04:05:59;18.98;;;8.95;;
18206;SDS011;9229;52.354;20.886;2022-12-18T04:11:12;20.02;;;8.00;;
18206;SDS011;9229;52.354;20.886;2022-12-18T04:16:18;16.33;;;9.25;;
18206;SDS011;9229;52.354;20.886;2022-12-18T04:21:26;17.90;;;8.75;;
18206;SDS011;9229;52.354;20.886;2022-12-18T04:26:30;15.77;;;8.57;;
18206;SDS011;9229;52.354;20.886;2022-12-18T04:32:01;21.45;;;8.52;;
18206;SDS011;9229;52.354;20.886;2022-12-18T04:37:06;15.85;;;7.60;;
18206;SDS011;9229;52.354;20.886;2022-12-18T04:42:11;19.05;;;9.13;;
18206;SDS011;9229;52.354;20.886;2022-12-18T04:47:16;21.88;;;9.38;;
18206;SDS011;9229;52.354;20.886;2022-12-18T04:52:22;21.25;;;10.38;;
18206;SDS011;9229;52.354;20.886;2022-12-18T04:57:25;19.57;;;10.77;;
18206;SDS011;9229;52.354;20.886;2022-12-18T05:02:30;21.45;;;9.90;;
18206;SDS011;9229;52.354;20.886;2022-12-18T05:07:34;17.60;;;7.85;;
18206;SDS011;9229;52.354;20.886;2022-12-18T05:12:37;18.77;;;7.93;;
18206;SDS011;9229;52.354;20.886;2022-12-18T05:18:01;22.35;;;8.55;;
18206;SDS011;9229;52.354;20.886;2022-12-18T05:23:06;14.98;;;8.50;;
18206;SDS011;9229;52.354;20.886;2022-12-18T05:28:11;20.30;;;9.15;;
18206;SDS011;9229;52.354;20.886;2022-12-18T05:33:18;19.80;;;8.85;;
18206;SDS011;9229;52.354;20.886;2022-12-18T05:38:24;26.27;;;9.17;;
18206;SDS011;9229;52.354;20.886;2022-12-18T05:43:33;25.40;;;10.33;;
18206;SDS011;9229;52.354;20.886;2022-12-18T05:48:37;37.63;;;11.83;;
18206;SDS011;9229;52.354;20.886;2022-12-18T05:53:41;36.92;;;16.15;;
18206;SDS011;9229;52.354;20.886;2022-12-18T05:58:43;31.23;;;11.57;;
18206;SDS011;9229;52.354;20.886;2022-12-18T06:03:52;37.53;;;14.07;;
18206;SDS011;9229;52.354;20.886;2022-12-18T06:08:54;34.93;;;15.07;;
18206;SDS011;9229;52.354;20.886;2022-12-18T06:14:03;37.13;;;14.47;;
18206;SDS011;9229;52.354;20.886;2022-12-18T06:19:20;36.63;;;14.00;;
18206;SDS011;9229;52.354;20.886;2022-12-18T06:24:22;37.67;;;12.73;;
18206;SDS011;9229;52.354;20.886;2022-12-18T06:29:26;40.40;;;13.98;;
18206;SDS011;9229;52.354;20.886;2022-12-18T06:34:32;34.65;;;12.48;;
18206;SDS011;9229;52.354;20.886;2022-12-18T06:39:37;44.10;;;15.97;;
18206;SDS011;9229;52.354;20.886;2022-12-18T06:44:43;40.78;;;14.55;;
18206;SDS011;9229;52.354;20.886;2022-12-18T06:49:48;38.63;;;13.90;;
18206;SDS011;9229;52.354;20.886;2022-12-18T06:54:52;40.25;;;16.05;;
18206;SDS011;9229;52.354;20.886;2022-12-18T06:59:57;55.93;;;17.17;;
18206;SDS011;9229;52.354;20.886;2022-12-18T07:05:05;39.88;;;14.30;;
18206;SDS011;9229;52.354;20.886;2022-12-18T07:10:11;43.38;;;15.90;;
18206;SDS011;9229;52.354;20.886;2022-12-18T07:15:17;58.53;;;16.77;;
18206;SDS011;9229;52.354;20.886;2022-12-18T07:20:23;51.37;;;17.77;;
18206;SDS011;9229;52.354;20.886;2022-12-18T07:25:29;43.77;;;16.20;;
18206;SDS011;9229;52.354;20.886;2022-12-18T07:30:31;45.33;;;18.90;;
18206;SDS011;9229;52.354;20.886;2022-12-18T07:35:38;50.42;;;18.05;;
18206;SDS011;9229;52.354;20.886;2022-12-18T07:40:44;42.10;;;15.80;;
18206;SDS011;9229;52.354;20.886;2022-12-18T07:45:49;50.47;;;16.48;;
18206;SDS011;9229;52.354;20.886;2022-12-18T07:50:57;48.43;;;15.40;;
18206;SDS011;9229;52.354;20.886;2022-12-18T07:56:01;50.17;;;18.23;;
18206;SDS011;9229;52.354;20.886;2022-12-18T08:01:05;46.78;;;19.33;;
18206;SDS011;9229;52.354;20.886;2022-12-18T08:06:09;39.22;;;16.27;;
18206;SDS011;9229;52.354;20.886;2022-12-18T08:11:11;47.72;;;17.58;;
18206;SDS011;9229;52.354;20.886;2022-12-18T08:16:13;55.20;;;17.75;;
18206;SDS011;9229;52.354;20.886;2022-12-18T08:21:17;57.58;;;18.17;;
18206;SDS011;9229;52.354;20.886;2022-12-18T08:26:23;62.30;;;17.92;;
18206;SDS011;9229;52.354;20.886;2022-12-18T08:31:27;46.15;;;16.95;;
18206;SDS011;9229;52.354;20.886;2022-12-18T08:36:31;49.03;;;17.52;;
18206;SDS011;9229;52.354;20.886;2022-12-18T08:41:33;41.63;;;15.70;;
18206;SDS011;9229;52.354;20.886;2022-12-18T08:46:36;52.07;;;17.73;;
18206;SDS011;9229;52.354;20.886;2022-12-18T08:51:40;52.03;;;18.60;;
18206;SDS011;9229;52.354;20.886;2022-12-18T08:56:42;45.20;;;16.08;;
18206;SDS011;9229;52.354;20.886;2022-12-18T09:01:44;59.88;;;18.02;;
18206;SDS011;9229;52.354;20.886;2022-12-18T09:06:48;44.33;;;16.35;;
18206;SDS011;9229;52.354;20.886;2022-12-18T09:11:51;39.88;;;15.82;;
18206;SDS011;9229;52.354;20.886;2022-12-18T09:16:53;52.17;;;16.10;;
18206;SDS011;9229;52.354;20.886;2022-12-18T09:21:56;48.92;;;18.83;;
18206;SDS011;9229;52.354;20.886;2022-12-18T09:26:59;56.75;;;16.27;;
18206;SDS011;9229;52.354;20.886;2022-12-18T09:32:01;47.13;;;15.80;;
18206;SDS011;9229;52.354;20.886;2022-12-18T09:37:06;56.03;;;19.10;;
18206;SDS011;9229;52.354;20.886;2022-12-18T09:42:09;36.22;;;16.00;;
18206;SDS011;9229;52.354;20.886;2022-12-18T09:47:23;48.47;;;16.80;;
18206;SDS011;9229;52.354;20.886;2022-12-18T09:52:31;41.88;;;16.63;;
18206;SDS011;9229;52.354;20.886;2022-12-18T09:57:37;47.55;;;16.85;;
18206;SDS011;9229;52.354;20.886;2022-12-18T10:02:43;37.55;;;17.40;;
18206;SDS011;9229;52.354;20.886;2022-12-18T10:07:55;35.83;;;15.82;;
18206;SDS011;9229;52.354;20.886;2022-12-18T10:13:14;42.58;;;16.13;;
18206;SDS011;9229;52.354;20.886;2022-12-18T10:18:25;47.17;;;16.50;;
18206;SDS011;9229;52.354;20.886;2022-12-18T10:23:37;38.85;;;17.73;;
18206;SDS011;9229;52.354;20.886;2022-12-18T10:28:45;30.67;;;15.57;;
18206;SDS011;9229;52.354;20.886;2022-12-18T10:33:47;38.03;;;15.50;;
18206;SDS011;9229;52.354;20.886;2022-12-18T10:38:51;44.17;;;15.43;;
18206;SDS011;9229;52.354;20.886;2022-12-18T10:49:21;48.53;;;20.05;;
18206;SDS011;9229;52.354;20.886;2022-12-18T10:54:26;46.95;;;18.88;;
18206;SDS011;9229;52.354;20.886;2022-12-18T10:59:30;54.42;;;17.67;;
18206;SDS011;9229;52.354;20.886;2022-12-18T11:04:52;40.45;;;16.10;;
18206;SDS011;9229;52.354;20.886;2022-12-18T11:10:00;46.15;;;19.33;;
18206;SDS011;9229;52.354;20.886;2022-12-18T11:15:03;62.72;;;20.38;;
18206;SDS011;9229;52.354;20.886;2022-12-18T11:20:07;46.28;;;17.90;;
18206;SDS011;9229;52.354;20.886;2022-12-18T11:25:30;55.58;;;19.60;;
18206;SDS011;9229;52.354;20.886;2022-12-18T11:30:35;60.45;;;20.52;;
18206;SDS011;9229;52.354;20.886;2022-12-18T11:35:39;44.63;;;18.52;;
18206;SDS011;9229;52.354;20.886;2022-12-18T11:40:47;85.65;;;27.33;;
18206;SDS011;9229;52.354;20.886;2022-12-18T11:45:56;56.15;;;21.48;;
18206;SDS011;9229;52.354;20.886;2022-12-18T11:51:03;47.35;;;20.17;;
18206;SDS011;9229;52.354;20.886;2022-12-18T11:56:16;47.92;;;17.10;;
18206;SDS011;9229;52.354;20.886;2022-12-18T12:01:32;45.50;;;16.67;;
18206;SDS011;9229;52.354;20.886;2022-12-18T12:06:44;34.22;;;15.15;;
18206;SDS011;9229;52.354;20.886;2022-12-18T12:11:56;45.08;;;17.73;;
18206;SDS011;9229;52.354;20.886;2022-12-18T12:17:06;54.45;;;17.73;;
18206;SDS011;9229;52.354;20.886;2022-12-18T12:22:18;47.13;;;18.35;;
18206;SDS011;9229;52.354;20.886;2022-12-18T12:27:29;43.58;;;16.75;;
18206;SDS011;9229;52.354;20.886;2022-12-18T12:32:45;56.97;;;19.63;;
18206;SDS011;9229;52.354;20.886;2022-12-18T12:38:05;49.28;;;18.23;;
18206;SDS011;9229;52.354;20.886;2022-12-18T12:43:24;55.35;;;19.50;;
18206;SDS011;9229;52.354;20.886;2022-12-18T12:48:38;48.08;;;18.20;;
18206;SDS011;9229;52.354;20.886;2022-12-18T12:53:44;58.83;;;19.73;;
18206;SDS011;9229;52.354;20.886;2022-12-18T12:58:51;65.40;;;21.83;;
18206;SDS011;9229;52.354;20.886;2022-12-18T13:04:05;51.53;;;21.67;;
18206;SDS011;9229;52.354;20.886;2022-12-18T13:09:16;58.47;;;19.95;;
18206;SDS011;9229;52.354;20.886;2022-12-18T13:14:32;59.63;;;20.27;;
18206;SDS011;9229;52.354;20.886;2022-12-18T13:19:35;56.88;;;19.20;;
18206;SDS011;9229;52.354;20.886;2022-12-18T13:24:37;58.10;;;20.63;;
18206;SDS011;9229;52.354;20.886;2022-12-18T13:29:42;62.13;;;21.73;;
18206;SDS011;9229;52.354;20.886;2022-12-18T13:34:45;73.07;;;22.55;;
18206;SDS011;9229;52.354;20.886;2022-12-18T13:39:47;71.47;;;22.90;;
18206;SDS011;9229;52.354;20.886;2022-12-18T13:44:50;63.50;;;22.58;;
18206;SDS011;9229;52.354;20.886;2022-12-18T13:49:52;69.43;;;20.65;;
18206;SDS011;9229;52.354;20.886;2022-12-18T13:54:55;67.65;;;23.55;;
18206;SDS011;9229;52.354;20.886;2022-12-18T14:00:14;59.92;;;22.05;;
18206;SDS011;9229;52.354;20.886;2022-12-18T14:05:25;58.63;;;19.85;;
18206;SDS011;9229;52.354;20.886;2022-12-18T14:10:29;65.68;;;22.13;;
18206;SDS011;9229;52.354;20.886;2022-12-18T14:15:34;65.78;;;22.67;;
18206;SDS011;9229;52.354;20.886;2022-12-18T14:20:39;70.60;;;23.38;;
18206;SDS011;9229;52.354;20.886;2022-12-18T14:25:45;53.00;;;18.13;;
18206;SDS011;9229;52.354;20.886;2022-12-18T14:30:49;83.72;;;24.15;;
18206;SDS011;9229;52.354;20.886;2022-12-18T14:35:52;77.43;;;26.77;;
18206;SDS011;9229;52.354;20.886;2022-12-18T14:40:58;72.10;;;26.13;;
18206;SDS011;9229;52.354;20.886;2022-12-18T14:46:02;61.83;;;21.05;;
18206;SDS011;9229;52.354;20.886;2022-12-18T14:51:06;76.97;;;23.88;;
18206;SDS011;9229;52.354;20.886;2022-12-18T14:56:17;51.70;;;18.52;;
18206;SDS011;9229;52.354;20.886;2022-12-18T15:01:23;61.92;;;20.95;;
18206;SDS011;9229;52.354;20.886;2022-12-18T15:06:31;59.35;;;21.92;;
18206;SDS011;9229;52.354;20.886;2022-12-18T15:11:42;57.03;;;20.92;;
18206;SDS011;9229;52.354;20.886;2022-12-18T15:16:50;64.45;;;22.67;;
18206;SDS011;9229;52.354;20.886;2022-12-18T15:21:54;65.40;;;21.77;;
18206;SDS011;9229;52.354;20.886;2022-12-18T15:26:56;60.05;;;22.77;;
18206;SDS011;9229;52.354;20.886;2022-12-18T15:32:00;55.13;;;20.45;;
18206;SDS011;9229;52.354;20.886;2022-12-18T15:37:03;69.53;;;22.33;;
18206;SDS011;9229;52.354;20.886;2022-12-18T15:42:07;55.45;;;19.60;;
18206;SDS011;9229;52.354;20.886;2022-12-18T15:47:28;57.95;;;22.27;;
18206;SDS011;9229;52.354;20.886;2022-12-18T15:52:31;57.55;;;22.42;;
18206;SDS011;9229;52.354;20.886;2022-12-18T15:57:39;66.72;;;23.63;;
18206;SDS011;9229;52.354;20.886;2022-12-18T16:02:43;65.82;;;23.60;;
18206;SDS011;9229;52.354;20.886;2022-12-18T16:07:45;48.38;;;19.40;;
18206;SDS011;9229;52.354;20.886;2022-12-18T16:12:47;79.78;;;25.23;;
18206;SDS011;9229;52.354;20.886;2022-12-18T16:17:50;79.88;;;26.58;;
18206;SDS011;9229;52.354;20.886;2022-12-18T16:22:53;83.80;;;30.23;;
18206;SDS011;9229;52.354;20.886;2022-12-18T16:27:55;51.42;;;20.45;;
18206;SDS011;9229;52.354;20.886;2022-12-18T16:32:59;67.47;;;25.50;;
18206;SDS011;9229;52.354;20.886;2022-12-18T16:38:01;70.72;;;27.67;;
18206;SDS011;9229;52.354;20.886;2022-12-18T16:43:03;49.67;;;20.33;;
18206;SDS011;9229;52.354;20.886;2022-12-18T16:48:06;58.20;;;22.70;;
18206;SDS011;9229;52.354;20.886;2022-12-18T16:53:08;58.65;;;22.77;;
18206;SDS011;9229;52.354;20.886;2022-12-18T16:58:10;65.03;;;23.23;;
18206;SDS011;9229;52.354;20.886;2022-12-18T17:03:16;70.35;;;23.20;;
18206;SDS011;9229;52.354;20.886;2022-12-18T17:08:18;62.03;;;21.00;;
18206;SDS011;9229;52.354;20.886;2022-12-18T17:13:20;64.00;;;20.85;;
18206;SDS011;9229;52.354;20.886;2022-12-18T17:18:24;69.95;;;23.50;;
18206;SDS011;9229;52.354;20.886;2022-12-18T17:23:27;79.18;;;25.20;;
18206;SDS011;9229;52.354;20.886;2022-12-18T17:28:29;58.20;;;22.23;;
18206;SDS011;9229;52.354;20.886;2022-12-18T17:33:33;46.63;;;20.65;;
18206;SDS011;9229;52.354;20.886;2022-12-18T17:38:36;56.25;;;22.20;;
18206;SDS011;9229;52.354;20.886;2022-12-18T17:43:38;53.72;;;19.88;;
18206;SDS011;9229;52.354;20.886;2022-12-18T17:48:46;58.47;;;20.95;;
18206;SDS011;9229;52.354;20.886;2022-12-18T17:53:48;61.47;;;22.45;;
18206;SDS011;9229;52.354;20.886;2022-12-18T17:58:51;58.88;;;23.58;;
18206;SDS011;9229;52.354;20.886;2022-12-18T18:03:56;50.10;;;19.83;;
18206;SDS011;9229;52.354;20.886;2022-12-18T18:08:59;54.35;;;21.52;;
18206;SDS011;9229;52.354;20.886;2022-12-18T18:14:01;60.35;;;22.02;;
18206;SDS011;9229;52.354;20.886;2022-12-18T18:19:06;64.15;;;24.15;;
18206;SDS011;9229;52.354;20.886;2022-12-18T18:24:10;58.47;;;21.67;;
18206;SDS011;9229;52.354;20.886;2022-12-18T18:29:14;58.53;;;19.38;;
18206;SDS011;9229;52.354;20.886;2022-12-18T18:34:20;45.63;;;19.52;;
18206;SDS011;9229;52.354;20.886;2022-12-18T18:39:24;56.20;;;20.63;;
18206;SDS011;9229;52.354;20.886;2022-12-18T18:44:26;57.90;;;19.47;;
18206;SDS011;9229;52.354;20.886;2022-12-18T18:49:30;39.63;;;15.05;;
18206;SDS011;9229;52.354;20.886;2022-12-18T18:54:31;46.00;;;18.42;;
18206;SDS011;9229;52.354;20.886;2022-12-18T18:59:33;46.38;;;18.42;;
18206;SDS011;9229;52.354;20.886;2022-12-18T19:04:37;41.70;;;17.67;;
18206;SDS011;9229;52.354;20.886;2022-12-18T19:09:39;35.35;;;15.20;;
18206;SDS011;9229;52.354;20.886;2022-12-18T19:14:41;37.63;;;16.83;;
18206;SDS011;9229;52.354;20.886;2022-12-18T19:19:46;40.92;;;17.40;;
18206;SDS011;9229;52.354;20.886;2022-12-18T19:24:48;53.67;;;19.05;;
18206;SDS011;9229;52.354;20.886;2022-12-18T19:29:50;52.20;;;20.27;;
18206;SDS011;9229;52.354;20.886;2022-12-18T19:34:53;58.35;;;20.73;;
18206;SDS011;9229;52.354;20.886;2022-12-18T19:39:56;50.03;;;18.37;;
18206;SDS011;9229;52.354;20.886;2022-12-18T19:44:58;47.70;;;19.55;;
18206;SDS011;9229;52.354;20.886;2022-12-18T19:50:01;62.07;;;20.03;;
18206;SDS011;9229;52.354;20.886;2022-12-18T19:55:04;55.30;;;17.43;;
18206;SDS011;9229;52.354;20.886;2022-12-18T20:00:07;49.33;;;16.33;;
18206;SDS011;9229;52.354;20.886;2022-12-18T20:05:13;47.47;;;18.07;;
18206;SDS011;9229;52.354;20.886;2022-12-18T20:10:15;52.88;;;19.48;;
18206;SDS011;9229;52.354;20.886;2022-12-18T20:15:17;44.45;;;14.95;;
18206;SDS011;9229;52.354;20.886;2022-12-18T20:20:20;49.07;;;16.40;;
18206;SDS011;9229;52.354;20.886;2022-12-18T20:25:23;51.57;;;21.17;;
18206;SDS011;9229;52.354;20.886;2022-12-18T20:30:25;62.50;;;19.67;;
18206;SDS011;9229;52.354;20.886;2022-12-18T20:35:32;36.83;;;15.87;;
18206;SDS011;9229;52.354;20.886;2022-12-18T20:40:33;58.77;;;20.67;;
18206;SDS011;9229;52.354;20.886;2022-12-18T20:45:36;35.13;;;15.40;;
18206;SDS011;9229;52.354;20.886;2022-12-18T20:50:39;53.75;;;18.08;;
18206;SDS011;9229;52.354;20.886;2022-12-18T20:55:42;46.50;;;15.40;;
18206;SDS011;9229;52.354;20.886;2022-12-18T21:00:44;41.53;;;15.70;;
18206;SDS011;9229;52.354;20.886;2022-12-18T21:05:49;49.88;;;16.60;;
18206;SDS011;9229;52.354;20.886;2022-12-18T21:10:51;35.93;;;12.73;;
18206;SDS011;9229;52.354;20.886;2022-12-18T21:15:53;34.57;;;15.93;;
18206;SDS011;9229;52.354;20.886;2022-12-18T21:20:56;50.92;;;18.08;;
18206;SDS011;9229;52.354;20.886;2022-12-18T21:26:13;39.43;;;15.63;;
18206;SDS011;9229;52.354;20.886;2022-12-18T21:31:15;34.80;;;15.68;;
18206;SDS011;9229;52.354;20.886;2022-12-18T21:36:19;34.97;;;14.90;;
18206;SDS011;9229;52.354;20.886;2022-12-18T21:41:21;37.00;;;16.10;;
18206;SDS011;9229;52.354;20.886;2022-12-18T21:46:42;39.95;;;17.05;;
18206;SDS011;9229;52.354;20.886;2022-12-18T21:51:47;34.50;;;12.63;;
18206;SDS011;9229;52.354;20.886;2022-12-18T21:56:50;39.87;;;14.80;;
18206;SDS011;9229;52.354;20.886;2022-12-18T22:01:53;39.53;;;15.30;;
18206;SDS011;9229;52.354;20.886;2022-12-18T22:06:57;30.42;;;13.60;;
18206;SDS011;9229;52.354;20.886;2022-12-18T22:11:59;41.07;;;14.30;;
18206;SDS011;9229;52.354;20.886;2022-12-18T22:17:02;39.38;;;15.02;;
18206;SDS011;9229;52.354;20.886;2022-12-18T22:22:05;40.23;;;16.40;;
18206;SDS011;9229;52.354;20.886;2022-12-18T22:27:07;42.15;;;15.23;;
18206;SDS011;9229;52.354;20.886;2022-12-18T22:32:10;36.80;;;14.07;;
18206;SDS011;9229;52.354;20.886;2022-12-18T22:37:16;37.40;;;14.43;;
18206;SDS011;9229;52.354;20.886;2022-12-18T22:42:18;33.13;;;13.15;;
18206;SDS011;9229;52.354;20.886;2022-12-18T22:47:20;35.72;;;17.02;;
18206;SDS011;9229;52.354;20.886;2022-12-18T22:52:23;42.20;;;16.98;;
18206;SDS011;9229;52.354;20.886;2022-12-18T22:57:25;37.70;;;12.10;;
18206;SDS011;9229;52.354;20.886;2022-12-18T23:02:27;30.88;;;14.13;;
18206;SDS011;9229;52.354;20.886;2022-12-18T23:07:30;27.55;;;11.70;;
18206;SDS011;9229;52.354;20.886;2022-12-18T23:12:32;25.87;;;12.77;;
18206;SDS011;9229;52.354;20.886;2022-12-18T23:17:36;28.98;;;12.77;;
18206;SDS011;9229;52.354;20.886;2022-12-18T23:22:41;27.67;;;12.15;;
18206;SDS011;9229;52.354;20.886;2022-12-18T23:27:43;26.23;;;10.90;;
18206;SDS011;9229;52.354;20.886;2022-12-18T23:32:46;37.63;;;11.43;;
18206;SDS011;9229;52.354;20.886;2022-12-18T23:37:49;27.40;;;12.30;;
18206;SDS011;9229;52.354;20.886;2022-12-18T23:42:51;27.07;;;10.83;;
18206;SDS011;9229;52.354;20.886;2022-12-18T23:47:53;23.95;;;12.27;;
18206;SDS011;9229;52.354;20.886;2022-12-18T23:52:57;31.30;;;12.57;;
18206;SDS011;9229;52.354;20.886;2022-12-18T23:57:59;42.55;;;12.35;;
